sensor_id;sensor_type;location;lat;lon;timestamp;temperature;humidity
6956;DHT22;50345;51.136;16.886;2023-09-30T00:00:00;19.20;99.90
6956;DHT22;50345;51.136;16.886;2023-09-30T00:02:26;19.20;99.90
6956;DHT22;50345;51.136;16.886;2023-09-30T00:04:53;19.20;99.90
6956;DHT22;50345;51.136;16.886;2023-09-30T00:07:19;19.20;99.90
6956;DHT22;50345;51.136;16.886;2023-09-30T00:09:45;19.20;99.90
6956;DHT22;50345;51.136;16.886;2023-09-30T00:12:10;19.20;99.90
6956;DHT22;50345;51.136;16.886;2023-09-30T00:14:36;19.20;99.90
6956;DHT22;50345;51.136;16.886;2023-09-30T00:17:03;19.20;99.90
6956;DHT22;50345;51.136;16.886;2023-09-30T00:19:28;19.20;99.90
6956;DHT22;50345;51.136;16.886;2023-09-30T00:21:54;19.20;99.90
6956;DHT22;50345;51.136;16.886;2023-09-30T00:24:20;19.20;99.90
6956;DHT22;50345;51.136;16.886;2023-09-30T00:26:45;19.20;99.90
6956;DHT22;50345;51.136;16.886;2023-09-30T00:29:11;19.20;99.90
6956;DHT22;50345;51.136;16.886;2023-09-30T00:31:37;19.20;99.90
6956;DHT22;50345;51.136;16.886;2023-09-30T00:34:02;19.20;99.90
6956;DHT22;50345;51.136;16.886;2023-09-30T00:36:28;19.20;99.90
6956;DHT22;50345;51.136;16.886;2023-09-30T00:38:54;19.20;99.90
6956;DHT22;50345;51.136;16.886;2023-09-30T00:41:19;19.30;99.90
6956;DHT22;50345;51.136;16.886;2023-09-30T00:43:48;19.20;99.90
6956;DHT22;50345;51.136;16.886;2023-09-30T00:48:49;19.20;99.90
6956;DHT22;50345;51.136;16.886;2023-09-30T00:51:14;19.20;99.90
6956;DHT22;50345;51.136;16.886;2023-09-30T00:53:40;19.20;99.90
6956;DHT22;50345;51.136;16.886;2023-09-30T00:56:06;19.20;99.90
6956;DHT22;50345;51.136;16.886;2023-09-30T00:58:34;19.20;99.90
6956;DHT22;50345;51.136;16.886;2023-09-30T01:00:59;19.20;99.90
6956;DHT22;50345;51.136;16.886;2023-09-30T01:03:25;19.20;99.90
6956;DHT22;50345;51.136;16.886;2023-09-30T01:05:51;19.20;99.90
6956;DHT22;50345;51.136;16.886;2023-09-30T01:08:16;19.20;99.90
6956;DHT22;50345;51.136;16.886;2023-09-30T01:10:43;19.20;99.90
6956;DHT22;50345;51.136;16.886;2023-09-30T01:13:09;19.20;99.90
6956;DHT22;50345;51.136;16.886;2023-09-30T01:15:35;19.20;99.90
6956;DHT22;50345;51.136;16.886;2023-09-30T01:18:02;19.20;99.90
6956;DHT22;50345;51.136;16.886;2023-09-30T01:20:28;19.30;99.90
6956;DHT22;50345;51.136;16.886;2023-09-30T01:22:54;19.30;99.90
6956;DHT22;50345;51.136;16.886;2023-09-30T01:25:22;19.30;99.90
6956;DHT22;50345;51.136;16.886;2023-09-30T01:27:47;19.40;99.90
6956;DHT22;50345;51.136;16.886;2023-09-30T01:30:13;19.40;99.90
6956;DHT22;50345;51.136;16.886;2023-09-30T01:32:39;19.50;99.90
6956;DHT22;50345;51.136;16.886;2023-09-30T01:35:06;19.50;99.90
6956;DHT22;50345;51.136;16.886;2023-09-30T01:37:32;19.60;99.90
6956;DHT22;50345;51.136;16.886;2023-09-30T01:39:57;19.70;99.90
6956;DHT22;50345;51.136;16.886;2023-09-30T01:42:23;19.70;99.90
6956;DHT22;50345;51.136;16.886;2023-09-30T01:44:48;19.80;99.90
6956;DHT22;50345;51.136;16.886;2023-09-30T01:47:14;19.90;99.90
6956;DHT22;50345;51.136;16.886;2023-09-30T01:49:39;19.90;99.90
6956;DHT22;50345;51.136;16.886;2023-09-30T01:52:05;19.90;99.90
6956;DHT22;50345;51.136;16.886;2023-09-30T01:54:31;20.00;99.90
6956;DHT22;50345;51.136;16.886;2023-09-30T01:56:56;20.00;99.90
6956;DHT22;50345;51.136;16.886;2023-09-30T01:59:22;20.00;99.90
6956;DHT22;50345;51.136;16.886;2023-09-30T02:01:48;20.10;99.90
6956;DHT22;50345;51.136;16.886;2023-09-30T02:04:14;20.10;99.90
6956;DHT22;50345;51.136;16.886;2023-09-30T02:06:43;20.10;99.90
6956;DHT22;50345;51.136;16.886;2023-09-30T02:09:08;20.10;99.90
6956;DHT22;50345;51.136;16.886;2023-09-30T02:11:35;20.10;99.90
6956;DHT22;50345;51.136;16.886;2023-09-30T02:14:02;20.10;99.90
6956;DHT22;50345;51.136;16.886;2023-09-30T02:16:28;20.10;99.90
6956;DHT22;50345;51.136;16.886;2023-09-30T02:18:53;20.10;99.90
6956;DHT22;50345;51.136;16.886;2023-09-30T02:21:19;20.10;99.90
6956;DHT22;50345;51.136;16.886;2023-09-30T02:23:47;20.10;99.90
6956;DHT22;50345;51.136;16.886;2023-09-30T02:26:17;20.00;99.90
6956;DHT22;50345;51.136;16.886;2023-09-30T02:28:43;20.00;99.90
6956;DHT22;50345;51.136;16.886;2023-09-30T02:31:08;20.00;99.90
6956;DHT22;50345;51.136;16.886;2023-09-30T02:33:34;20.10;99.90
6956;DHT22;50345;51.136;16.886;2023-09-30T02:36:07;20.00;99.90
6956;DHT22;50345;51.136;16.886;2023-09-30T02:38:33;20.00;99.90
6956;DHT22;50345;51.136;16.886;2023-09-30T02:40:58;20.00;99.90
6956;DHT22;50345;51.136;16.886;2023-09-30T02:43:24;20.10;99.90
6956;DHT22;50345;51.136;16.886;2023-09-30T02:45:49;20.00;99.90
6956;DHT22;50345;51.136;16.886;2023-09-30T02:48:15;20.00;99.90
6956;DHT22;50345;51.136;16.886;2023-09-30T02:50:44;19.90;99.90
6956;DHT22;50345;51.136;16.886;2023-09-30T02:53:13;19.90;99.90
6956;DHT22;50345;51.136;16.886;2023-09-30T02:55:39;19.90;99.90
6956;DHT22;50345;51.136;16.886;2023-09-30T02:58:06;19.90;99.90
6956;DHT22;50345;51.136;16.886;2023-09-30T03:00:33;19.80;99.90
6956;DHT22;50345;51.136;16.886;2023-09-30T03:03:00;19.70;99.90
6956;DHT22;50345;51.136;16.886;2023-09-30T03:05:27;19.70;99.90
6956;DHT22;50345;51.136;16.886;2023-09-30T03:07:53;19.60;99.90
6956;DHT22;50345;51.136;16.886;2023-09-30T03:10:21;19.60;99.90
6956;DHT22;50345;51.136;16.886;2023-09-30T03:12:52;19.50;99.90
6956;DHT22;50345;51.136;16.886;2023-09-30T03:15:18;19.50;99.90
6956;DHT22;50345;51.136;16.886;2023-09-30T03:17:44;19.40;99.90
6956;DHT22;50345;51.136;16.886;2023-09-30T03:20:10;19.40;99.90
6956;DHT22;50345;51.136;16.886;2023-09-30T03:22:41;19.30;99.90
6956;DHT22;50345;51.136;16.886;2023-09-30T03:25:09;19.30;99.90
6956;DHT22;50345;51.136;16.886;2023-09-30T03:27:35;19.20;99.90
6956;DHT22;50345;51.136;16.886;2023-09-30T03:30:02;19.20;99.90
6956;DHT22;50345;51.136;16.886;2023-09-30T03:32:31;19.20;99.90
6956;DHT22;50345;51.136;16.886;2023-09-30T03:34:59;19.10;99.90
6956;DHT22;50345;51.136;16.886;2023-09-30T03:37:26;19.10;99.90
6956;DHT22;50345;51.136;16.886;2023-09-30T03:39:54;19.10;99.90
6956;DHT22;50345;51.136;16.886;2023-09-30T03:42:20;19.10;99.90
6956;DHT22;50345;51.136;16.886;2023-09-30T03:44:45;19.10;99.90
6956;DHT22;50345;51.136;16.886;2023-09-30T03:47:11;19.20;99.90
6956;DHT22;50345;51.136;16.886;2023-09-30T03:49:37;19.20;99.90
6956;DHT22;50345;51.136;16.886;2023-09-30T03:52:04;19.20;99.90
6956;DHT22;50345;51.136;16.886;2023-09-30T03:54:30;19.20;99.90
6956;DHT22;50345;51.136;16.886;2023-09-30T03:56:56;19.20;99.90
6956;DHT22;50345;51.136;16.886;2023-09-30T03:59:22;19.20;99.90
6956;DHT22;50345;51.136;16.886;2023-09-30T04:01:48;19.20;99.90
6956;DHT22;50345;51.136;16.886;2023-09-30T04:04:14;19.20;99.90
6956;DHT22;50345;51.136;16.886;2023-09-30T04:06:39;19.20;99.90
6956;DHT22;50345;51.136;16.886;2023-09-30T04:09:06;19.20;99.90
6956;DHT22;50345;51.136;16.886;2023-09-30T04:11:37;19.20;99.90
6956;DHT22;50345;51.136;16.886;2023-09-30T04:14:05;19.20;99.90
6956;DHT22;50345;51.136;16.886;2023-09-30T04:16:31;19.20;99.90
6956;DHT22;50345;51.136;16.886;2023-09-30T04:18:57;19.20;99.90
6956;DHT22;50345;51.136;16.886;2023-09-30T04:21:23;19.20;99.90
6956;DHT22;50345;51.136;16.886;2023-09-30T04:23:48;19.20;99.90
6956;DHT22;50345;51.136;16.886;2023-09-30T04:26:14;19.20;99.90
6956;DHT22;50345;51.136;16.886;2023-09-30T04:28:40;19.10;99.90
6956;DHT22;50345;51.136;16.886;2023-09-30T04:31:06;19.10;99.90
6956;DHT22;50345;51.136;16.886;2023-09-30T04:33:33;19.10;99.90
6956;DHT22;50345;51.136;16.886;2023-09-30T04:36:01;19.10;99.90
6956;DHT22;50345;51.136;16.886;2023-09-30T04:38:26;19.10;99.90
6956;DHT22;50345;51.136;16.886;2023-09-30T04:40:52;19.10;99.90
6956;DHT22;50345;51.136;16.886;2023-09-30T04:43:19;19.10;99.90
6956;DHT22;50345;51.136;16.886;2023-09-30T04:45:46;19.10;99.90
6956;DHT22;50345;51.136;16.886;2023-09-30T04:48:12;19.00;99.90
6956;DHT22;50345;51.136;16.886;2023-09-30T04:50:39;19.00;99.90
6956;DHT22;50345;51.136;16.886;2023-09-30T04:53:05;19.00;99.90
6956;DHT22;50345;51.136;16.886;2023-09-30T04:55:30;19.00;99.90
6956;DHT22;50345;51.136;16.886;2023-09-30T04:57:56;19.00;99.90
6956;DHT22;50345;51.136;16.886;2023-09-30T05:00:21;18.90;99.90
6956;DHT22;50345;51.136;16.886;2023-09-30T05:02:51;18.90;99.90
6956;DHT22;50345;51.136;16.886;2023-09-30T05:05:18;18.90;99.90
6956;DHT22;50345;51.136;16.886;2023-09-30T05:07:43;18.90;99.90
6956;DHT22;50345;51.136;16.886;2023-09-30T05:10:10;18.90;99.90
6956;DHT22;50345;51.136;16.886;2023-09-30T05:12:39;18.90;99.90
6956;DHT22;50345;51.136;16.886;2023-09-30T05:15:06;18.80;99.90
6956;DHT22;50345;51.136;16.886;2023-09-30T05:17:32;18.90;99.90
6956;DHT22;50345;51.136;16.886;2023-09-30T05:19:59;18.90;99.90
6956;DHT22;50345;51.136;16.886;2023-09-30T05:22:24;18.90;99.90
6956;DHT22;50345;51.136;16.886;2023-09-30T05:24:51;18.90;99.90
6956;DHT22;50345;51.136;16.886;2023-09-30T05:27:17;18.90;99.90
6956;DHT22;50345;51.136;16.886;2023-09-30T05:29:43;18.90;99.90
6956;DHT22;50345;51.136;16.886;2023-09-30T05:32:09;18.90;99.90
6956;DHT22;50345;51.136;16.886;2023-09-30T05:34:34;19.00;99.90
6956;DHT22;50345;51.136;16.886;2023-09-30T05:37:00;19.00;99.90
6956;DHT22;50345;51.136;16.886;2023-09-30T05:39:26;19.00;99.90
6956;DHT22;50345;51.136;16.886;2023-09-30T05:41:54;19.00;99.90
6956;DHT22;50345;51.136;16.886;2023-09-30T05:44:20;19.00;99.90
6956;DHT22;50345;51.136;16.886;2023-09-30T05:46:46;19.00;99.90
6956;DHT22;50345;51.136;16.886;2023-09-30T05:49:12;19.00;99.90
6956;DHT22;50345;51.136;16.886;2023-09-30T05:51:42;19.00;99.90
6956;DHT22;50345;51.136;16.886;2023-09-30T05:54:08;19.00;99.90
6956;DHT22;50345;51.136;16.886;2023-09-30T05:56:36;19.00;99.90
6956;DHT22;50345;51.136;16.886;2023-09-30T05:59:03;19.00;99.90
6956;DHT22;50345;51.136;16.886;2023-09-30T06:01:30;19.00;99.90
6956;DHT22;50345;51.136;16.886;2023-09-30T06:03:57;18.90;99.90
6956;DHT22;50345;51.136;16.886;2023-09-30T06:06:23;18.90;99.90
6956;DHT22;50345;51.136;16.886;2023-09-30T06:08:49;18.90;99.90
6956;DHT22;50345;51.136;16.886;2023-09-30T06:11:19;18.90;99.90
6956;DHT22;50345;51.136;16.886;2023-09-30T06:13:48;18.80;99.90
6956;DHT22;50345;51.136;16.886;2023-09-30T06:16:14;18.80;99.90
6956;DHT22;50345;51.136;16.886;2023-09-30T06:18:39;18.80;99.90
6956;DHT22;50345;51.136;16.886;2023-09-30T06:21:05;18.80;99.90
6956;DHT22;50345;51.136;16.886;2023-09-30T06:23:31;18.80;99.90
6956;DHT22;50345;51.136;16.886;2023-09-30T06:25:59;18.70;99.90
6956;DHT22;50345;51.136;16.886;2023-09-30T06:28:27;18.70;99.90
6956;DHT22;50345;51.136;16.886;2023-09-30T06:30:53;18.60;99.90
6956;DHT22;50345;51.136;16.886;2023-09-30T06:33:19;18.60;99.90
6956;DHT22;50345;51.136;16.886;2023-09-30T06:35:45;18.60;99.90
6956;DHT22;50345;51.136;16.886;2023-09-30T06:38:19;18.60;99.90
6956;DHT22;50345;51.136;16.886;2023-09-30T06:40:45;18.60;99.90
6956;DHT22;50345;51.136;16.886;2023-09-30T06:43:13;18.60;99.90
6956;DHT22;50345;51.136;16.886;2023-09-30T06:45:41;18.50;99.90
6956;DHT22;50345;51.136;16.886;2023-09-30T06:48:08;18.50;99.90
6956;DHT22;50345;51.136;16.886;2023-09-30T06:50:48;18.50;99.90
6956;DHT22;50345;51.136;16.886;2023-09-30T06:53:17;18.40;99.90
6956;DHT22;50345;51.136;16.886;2023-09-30T06:55:44;18.40;99.90
6956;DHT22;50345;51.136;16.886;2023-09-30T06:58:10;18.40;99.90
6956;DHT22;50345;51.136;16.886;2023-09-30T07:00:36;18.40;99.90
6956;DHT22;50345;51.136;16.886;2023-09-30T07:03:02;18.40;99.90
6956;DHT22;50345;51.136;16.886;2023-09-30T07:05:29;18.50;99.90
6956;DHT22;50345;51.136;16.886;2023-09-30T07:07:55;18.50;99.90
6956;DHT22;50345;51.136;16.886;2023-09-30T07:10:21;18.50;99.90
6956;DHT22;50345;51.136;16.886;2023-09-30T07:12:46;18.60;99.90
6956;DHT22;50345;51.136;16.886;2023-09-30T07:15:12;18.60;99.90
6956;DHT22;50345;51.136;16.886;2023-09-30T07:17:39;18.60;99.90
6956;DHT22;50345;51.136;16.886;2023-09-30T07:20:06;18.50;99.90
6956;DHT22;50345;51.136;16.886;2023-09-30T07:22:32;18.50;99.90
6956;DHT22;50345;51.136;16.886;2023-09-30T07:24:58;18.40;99.90
6956;DHT22;50345;51.136;16.886;2023-09-30T07:27:24;18.30;99.90
6956;DHT22;50345;51.136;16.886;2023-09-30T07:32:16;18.20;99.90
6956;DHT22;50345;51.136;16.886;2023-09-30T07:34:42;18.10;99.90
6956;DHT22;50345;51.136;16.886;2023-09-30T07:37:07;18.10;99.90
6956;DHT22;50345;51.136;16.886;2023-09-30T07:39:34;18.10;99.90
6956;DHT22;50345;51.136;16.886;2023-09-30T07:42:00;18.20;99.90
6956;DHT22;50345;51.136;16.886;2023-09-30T07:44:26;18.40;99.90
6956;DHT22;50345;51.136;16.886;2023-09-30T07:46:52;18.60;99.90
6956;DHT22;50345;51.136;16.886;2023-09-30T07:49:18;18.80;99.90
6956;DHT22;50345;51.136;16.886;2023-09-30T07:51:44;18.90;99.90
6956;DHT22;50345;51.136;16.886;2023-09-30T07:54:11;19.10;99.90
6956;DHT22;50345;51.136;16.886;2023-09-30T07:56:37;19.10;99.90
6956;DHT22;50345;51.136;16.886;2023-09-30T07:59:04;19.20;99.90
6956;DHT22;50345;51.136;16.886;2023-09-30T08:01:30;19.40;99.90
6956;DHT22;50345;51.136;16.886;2023-09-30T08:03:56;19.70;99.90
6956;DHT22;50345;51.136;16.886;2023-09-30T08:06:22;19.90;99.90
6956;DHT22;50345;51.136;16.886;2023-09-30T08:08:47;20.00;99.90
6956;DHT22;50345;51.136;16.886;2023-09-30T08:11:13;20.10;99.90
6956;DHT22;50345;51.136;16.886;2023-09-30T08:13:39;20.30;99.90
6956;DHT22;50345;51.136;16.886;2023-09-30T08:16:05;20.50;99.90
6956;DHT22;50345;51.136;16.886;2023-09-30T08:18:30;20.80;99.90
6956;DHT22;50345;51.136;16.886;2023-09-30T08:20:56;20.80;99.90
6956;DHT22;50345;51.136;16.886;2023-09-30T08:23:22;20.90;99.90
6956;DHT22;50345;51.136;16.886;2023-09-30T08:25:47;20.80;99.90
6956;DHT22;50345;51.136;16.886;2023-09-30T08:28:13;20.90;99.90
6956;DHT22;50345;51.136;16.886;2023-09-30T08:30:39;20.90;99.90
6956;DHT22;50345;51.136;16.886;2023-09-30T08:33:04;20.90;99.90
6956;DHT22;50345;51.136;16.886;2023-09-30T08:35:35;20.90;99.90
6956;DHT22;50345;51.136;16.886;2023-09-30T08:38:00;20.80;99.90
6956;DHT22;50345;51.136;16.886;2023-09-30T08:40:27;20.80;99.90
6956;DHT22;50345;51.136;16.886;2023-09-30T08:42:53;20.90;99.90
6956;DHT22;50345;51.136;16.886;2023-09-30T08:45:19;20.90;99.90
6956;DHT22;50345;51.136;16.886;2023-09-30T08:47:45;21.00;99.90
6956;DHT22;50345;51.136;16.886;2023-09-30T08:50:16;21.00;99.90
6956;DHT22;50345;51.136;16.886;2023-09-30T08:52:44;21.10;99.90
6956;DHT22;50345;51.136;16.886;2023-09-30T08:55:11;21.10;99.90
6956;DHT22;50345;51.136;16.886;2023-09-30T08:57:38;21.00;99.90
6956;DHT22;50345;51.136;16.886;2023-09-30T09:00:08;21.10;99.90
6956;DHT22;50345;51.136;16.886;2023-09-30T09:02:37;21.30;99.90
6956;DHT22;50345;51.136;16.886;2023-09-30T09:05:03;21.60;99.90
6956;DHT22;50345;51.136;16.886;2023-09-30T09:07:29;21.90;99.40
6956;DHT22;50345;51.136;16.886;2023-09-30T09:12:35;22.40;96.90
6956;DHT22;50345;51.136;16.886;2023-09-30T09:15:02;22.70;96.70
6956;DHT22;50345;51.136;16.886;2023-09-30T09:17:41;22.90;96.10
6956;DHT22;50345;51.136;16.886;2023-09-30T09:20:08;23.00;94.50
6956;DHT22;50345;51.136;16.886;2023-09-30T09:22:42;22.70;93.70
6956;DHT22;50345;51.136;16.886;2023-09-30T09:25:08;22.20;94.30
6956;DHT22;50345;51.136;16.886;2023-09-30T09:27:34;22.10;95.80
6956;DHT22;50345;51.136;16.886;2023-09-30T09:30:18;22.50;94.70
6956;DHT22;50345;51.136;16.886;2023-09-30T09:32:56;23.00;94.10
6956;DHT22;50345;51.136;16.886;2023-09-30T09:37:59;23.80;86.30
6956;DHT22;50345;51.136;16.886;2023-09-30T09:40:27;24.20;87.60
6956;DHT22;50345;51.136;16.886;2023-09-30T09:45:25;24.30;82.70
6956;DHT22;50345;51.136;16.886;2023-09-30T09:47:52;24.00;83.30
6956;DHT22;50345;51.136;16.886;2023-09-30T09:50:20;23.60;84.60
6956;DHT22;50345;51.136;16.886;2023-09-30T09:52:49;23.30;86.90
6956;DHT22;50345;51.136;16.886;2023-09-30T09:55:17;23.10;87.80
6956;DHT22;50345;51.136;16.886;2023-09-30T09:57:44;22.90;85.10
6956;DHT22;50345;51.136;16.886;2023-09-30T10:00:16;22.80;85.20
6956;DHT22;50345;51.136;16.886;2023-09-30T10:02:42;22.90;87.00
6956;DHT22;50345;51.136;16.886;2023-09-30T10:05:08;23.20;84.40
6956;DHT22;50345;51.136;16.886;2023-09-30T10:07:37;23.50;84.70
6956;DHT22;50345;51.136;16.886;2023-09-30T10:10:07;24.00;79.70
6956;DHT22;50345;51.136;16.886;2023-09-30T10:20:37;25.50;64.10
6956;DHT22;50345;51.136;16.886;2023-09-30T10:25:45;25.90;62.60
6956;DHT22;50345;51.136;16.886;2023-09-30T10:28:47;25.90;63.40
6956;DHT22;50345;51.136;16.886;2023-09-30T10:31:21;25.40;63.00
6956;DHT22;50345;51.136;16.886;2023-09-30T10:38:54;24.90;63.90
6956;DHT22;50345;51.136;16.886;2023-09-30T10:46:54;25.50;61.10
6956;DHT22;50345;51.136;16.886;2023-09-30T10:51:51;26.10;58.90
6956;DHT22;50345;51.136;16.886;2023-09-30T10:54:43;26.10;59.60
6956;DHT22;50345;51.136;16.886;2023-09-30T10:57:10;26.00;58.70
6956;DHT22;50345;51.136;16.886;2023-09-30T10:59:36;25.80;58.20
6956;DHT22;50345;51.136;16.886;2023-09-30T11:02:01;25.50;58.90
6956;DHT22;50345;51.136;16.886;2023-09-30T11:04:27;25.00;58.80
6956;DHT22;50345;51.136;16.886;2023-09-30T11:09:21;24.40;59.90
6956;DHT22;50345;51.136;16.886;2023-09-30T11:11:49;23.90;61.00
6956;DHT22;50345;51.136;16.886;2023-09-30T11:14:29;23.40;62.80
6956;DHT22;50345;51.136;16.886;2023-09-30T11:16:56;23.40;64.10
6956;DHT22;50345;51.136;16.886;2023-09-30T11:19:23;23.40;63.90
6956;DHT22;50345;51.136;16.886;2023-09-30T11:21:53;23.40;64.40
6956;DHT22;50345;51.136;16.886;2023-09-30T11:24:20;23.40;63.60
